sensor_id;sensor_type;location;lat;lon;timestamp;pressure;altitude;pressure_sealevel;temperature;humidity
64025;BME280;50266;57.446;26.936;2023-04-08T00:00:39;100449.53;;;1.35;100.0
64025;BME280;50266;57.446;26.936;2023-04-08T00:01:39;100450.45;;;1.36;100.0
64025;BME280;50266;57.446;26.936;2023-04-08T00:02:39;100449.14;;;1.4;100.0
64025;BME280;50266;57.446;26.936;2023-04-08T00:03:39;100448.22;;;1.27;100.0
64025;BME280;50266;57.446;26.936;2023-04-08T00:04:39;100447.27;;;1.33;100.0
64025;BME280;50266;57.446;26.936;2023-04-08T00:05:39;100448.95;;;1.38;100.0
64025;BME280;50266;57.446;26.936;2023-04-08T00:06:39;100446.09;;;1.46;100.0
64025;BME280;50266;57.446;26.936;2023-04-08T00:07:39;100442.64;;;1.5;100.0
64025;BME280;50266;57.446;26.936;2023-04-08T00:08:39;100446.17;;;1.48;100.0
64025;BME280;50266;57.446;26.936;2023-04-08T00:09:39;100448.63;;;1.59;100.0
64025;BME280;50266;57.446;26.936;2023-04-08T00:10:39;100443.45;;;1.54;100.0
64025;BME280;50266;57.446;26.936;2023-04-08T00:11:40;100444.19;;;1.53;100.0
64025;BME280;50266;57.446;26.936;2023-04-08T00:12:39;100444.52;;;1.57;100.0
64025;BME280;50266;57.446;26.936;2023-04-08T00:13:39;100447.02;;;1.65;100.0
64025;BME280;50266;57.446;26.936;2023-04-08T00:14:39;100447.3;;;1.65;100.0
64025;BME280;50266;57.446;26.936;2023-04-08T00:15:39;100446.68;;;1.72;100.0
64025;BME280;50266;57.446;26.936;2023-04-08T00:16:39;100448.64;;;1.8;100.0
64025;BME280;50266;57.446;26.936;2023-04-08T00:17:40;100447.16;;;1.84;100.0
64025;BME280;50266;57.446;26.936;2023-04-08T00:18:39;100444.45;;;1.86;100.0
64025;BME280;50266;57.446;26.936;2023-04-08T00:19:39;100446.7;;;1.82;100.0
64025;BME280;50266;57.446;26.936;2023-04-08T00:20:39;100446.58;;;1.82;100.0
64025;BME280;50266;57.446;26.936;2023-04-08T00:21:39;100444.73;;;1.74;100.0
64025;BME280;50266;57.446;26.936;2023-04-08T00:22:39;100442.53;;;1.62;100.0
64025;BME280;50266;57.446;26.936;2023-04-08T00:23:39;100447.92;;;1.59;100.0
64025;BME280;50266;57.446;26.936;2023-04-08T00:24:39;100446.77;;;1.6;100.0
64025;BME280;50266;57.446;26.936;2023-04-08T00:25:39;100448.45;;;1.57;100.0
64025;BME280;50266;57.446;26.936;2023-04-08T00:26:39;100448.62;;;1.52;100.0
64025;BME280;50266;57.446;26.936;2023-04-08T00:27:39;100441.59;;;1.41;100.0
64025;BME280;50266;57.446;26.936;2023-04-08T00:28:39;100443.24;;;1.46;100.0
64025;BME280;50266;57.446;26.936;2023-04-08T00:29:39;100446.24;;;1.45;100.0
64025;BME280;50266;57.446;26.936;2023-04-08T00:30:39;100445.7;;;1.32;100.0
64025;BME280;50266;57.446;26.936;2023-04-08T00:31:39;100447.33;;;1.28;100.0
64025;BME280;50266;57.446;26.936;2023-04-08T00:32:39;100448.64;;;1.28;100.0
64025;BME280;50266;57.446;26.936;2023-04-08T00:33:39;100443.34;;;1.37;100.0
64025;BME280;50266;57.446;26.936;2023-04-08T00:34:39;100446.61;;;1.37;100.0
64025;BME280;50266;57.446;26.936;2023-04-08T00:35:39;100447.01;;;1.28;100.0
64025;BME280;50266;57.446;26.936;2023-04-08T00:36:40;100442.44;;;1.31;100.0
64025;BME280;50266;57.446;26.936;2023-04-08T00:37:39;100443.89;;;1.45;100.0
64025;BME280;50266;57.446;26.936;2023-04-08T00:38:39;100444.37;;;1.33;100.0
64025;BME280;50266;57.446;26.936;2023-04-08T00:39:40;100445.66;;;1.21;100.0
64025;BME280;50266;57.446;26.936;2023-04-08T00:40:40;100443.98;;;1.34;100.0
64025;BME280;50266;57.446;26.936;2023-04-08T00:41:40;100445.08;;;1.34;100.0
64025;BME280;50266;57.446;26.936;2023-04-08T00:42:40;100443.22;;;1.33;100.0
64025;BME280;50266;57.446;26.936;2023-04-08T00:43:40;100443.81;;;1.39;100.0
64025;BME280;50266;57.446;26.936;2023-04-08T00:44:40;100440.41;;;1.32;100.0
64025;BME280;50266;57.446;26.936;2023-04-08T00:45:40;100442.15;;;1.28;100.0
64025;BME280;50266;57.446;26.936;2023-04-08T00:46:40;100443.77;;;1.19;100.0
64025;BME280;50266;57.446;26.936;2023-04-08T00:47:41;100439.66;;;1.2;100.0
64025;BME280;50266;57.446;26.936;2023-04-08T00:48:40;100441.8;;;1.15;100.0
64025;BME280;50266;57.446;26.936;2023-04-08T00:49:40;100438.95;;;1.11;100.0
64025;BME280;50266;57.446;26.936;2023-04-08T00:50:41;100438.14;;;1.06;100.0
64025;BME280;50266;57.446;26.936;2023-04-08T00:51:40;100434.41;;;1.08;100.0
64025;BME280;50266;57.446;26.936;2023-04-08T00:52:40;100435.44;;;1.02;100.0
64025;BME280;50266;57.446;26.936;2023-04-08T00:53:40;100440.35;;;0.97;100.0
64025;BME280;50266;57.446;26.936;2023-04-08T00:54:40;100439.69;;;0.97;100.0
64025;BME280;50266;57.446;26.936;2023-04-08T00:55:40;100438.19;;;0.9;100.0
64025;BME280;50266;57.446;26.936;2023-04-08T00:56:40;100433.9;;;0.77;100.0
64025;BME280;50266;57.446;26.936;2023-04-08T00:57:40;100439.09;;;0.81;100.0
64025;BME280;50266;57.446;26.936;2023-04-08T00:58:40;100439.68;;;0.77;100.0
64025;BME280;50266;57.446;26.936;2023-04-08T00:59:40;100438.82;;;0.8;100.0
64025;BME280;50266;57.446;26.936;2023-04-08T01:00:41;100435.45;;;0.74;100.0
64025;BME280;50266;57.446;26.936;2023-04-08T01:02:46;100433.69;;;0.71;100.0
64025;BME280;50266;57.446;26.936;2023-04-08T01:03:51;100438.08;;;0.85;100.0
64025;BME280;50266;57.446;26.936;2023-04-08T01:05:59;100439.63;;;0.83;100.0
64025;BME280;50266;57.446;26.936;2023-04-08T01:07:55;100437.94;;;0.81;100.0
64025;BME280;50266;57.446;26.936;2023-04-08T01:08:55;100436.68;;;0.82;100.0
64025;BME280;50266;57.446;26.936;2023-04-08T01:09:56;100435.75;;;0.84;100.0
64025;BME280;50266;57.446;26.936;2023-04-08T01:10:57;100434.93;;;0.82;100.0
64025;BME280;50266;57.446;26.936;2023-04-08T01:11:55;100437.73;;;0.97;100.0
64025;BME280;50266;57.446;26.936;2023-04-08T01:12:56;100437.95;;;1.02;100.0
64025;BME280;50266;57.446;26.936;2023-04-08T01:13:56;100434.36;;;1.01;100.0
64025;BME280;50266;57.446;26.936;2023-04-08T01:14:58;100438.05;;;0.97;100.0
64025;BME280;50266;57.446;26.936;2023-04-08T01:15:56;100435.8;;;0.9;100.0
64025;BME280;50266;57.446;26.936;2023-04-08T01:16:56;100433.85;;;1.04;100.0
64025;BME280;50266;57.446;26.936;2023-04-08T01:17:56;100433.64;;;1.02;100.0
64025;BME280;50266;57.446;26.936;2023-04-08T01:18:56;100435.06;;;0.97;100.0
64025;BME280;50266;57.446;26.936;2023-04-08T01:19:56;100433.75;;;0.93;100.0
64025;BME280;50266;57.446;26.936;2023-04-08T01:20:56;100432.47;;;0.9;100.0
64025;BME280;50266;57.446;26.936;2023-04-08T01:21:58;100433.11;;;0.87;100.0
64025;BME280;50266;57.446;26.936;2023-04-08T01:24:05;100426.59;;;0.9;100.0
64025;BME280;50266;57.446;26.936;2023-04-08T01:25:05;100427.97;;;0.92;100.0
64025;BME280;50266;57.446;26.936;2023-04-08T01:26:03;100427.09;;;0.92;100.0
64025;BME280;50266;57.446;26.936;2023-04-08T01:27:03;100429.48;;;0.98;100.0
64025;BME280;50266;57.446;26.936;2023-04-08T01:28:04;100428.75;;;0.96;100.0
64025;BME280;50266;57.446;26.936;2023-04-08T01:29:03;100426.7;;;0.83;100.0
64025;BME280;50266;57.446;26.936;2023-04-08T01:30:03;100428.72;;;0.82;100.0
64025;BME280;50266;57.446;26.936;2023-04-08T01:31:03;100430.05;;;0.75;100.0
64025;BME280;50266;57.446;26.936;2023-04-08T01:32:03;100427.86;;;0.81;100.0
64025;BME280;50266;57.446;26.936;2023-04-08T01:33:03;100430.67;;;0.77;100.0
64025;BME280;50266;57.446;26.936;2023-04-08T01:34:03;100426.22;;;0.88;100.0
64025;BME280;50266;57.446;26.936;2023-04-08T01:35:03;100429.93;;;0.97;100.0
64025;BME280;50266;57.446;26.936;2023-04-08T01:36:03;100428.23;;;1.02;100.0
64025;BME280;50266;57.446;26.936;2023-04-08T01:37:03;100426.77;;;1.12;100.0
64025;BME280;50266;57.446;26.936;2023-04-08T01:38:03;100426.07;;;1.08;100.0
64025;BME280;50266;57.446;26.936;2023-04-08T01:39:03;100425.93;;;1.19;100.0
64025;BME280;50266;57.446;26.936;2023-04-08T01:40:03;100424.52;;;1.22;100.0
64025;BME280;50266;57.446;26.936;2023-04-08T01:41:03;100428.52;;;1.17;100.0
64025;BME280;50266;57.446;26.936;2023-04-08T01:42:03;100429.32;;;1.23;100.0
64025;BME280;50266;57.446;26.936;2023-04-08T01:43:03;100426.02;;;1.21;100.0
64025;BME280;50266;57.446;26.936;2023-04-08T01:44:03;100427.19;;;1.23;100.0
64025;BME280;50266;57.446;26.936;2023-04-08T01:45:03;100426.64;;;1.23;100.0
64025;BME280;50266;57.446;26.936;2023-04-08T01:46:03;100424.06;;;1.26;100.0
64025;BME280;50266;57.446;26.936;2023-04-08T01:47:03;100426.25;;;1.19;100.0
64025;BME280;50266;57.446;26.936;2023-04-08T01:48:04;100426.25;;;1.19;100.0
64025;BME280;50266;57.446;26.936;2023-04-08T01:49:03;100426.63;;;1.24;100.0
64025;BME280;50266;57.446;26.936;2023-04-08T01:50:03;100427.77;;;1.26;100.0
64025;BME280;50266;57.446;26.936;2023-04-08T01:51:04;100427.8;;;1.28;100.0
64025;BME280;50266;57.446;26.936;2023-04-08T01:52:04;100426.42;;;1.15;100.0
64025;BME280;50266;57.446;26.936;2023-04-08T01:53:03;100429.03;;;1.19;100.0
64025;BME280;50266;57.446;26.936;2023-04-08T01:54:03;100423.52;;;1.07;100.0
64025;BME280;50266;57.446;26.936;2023-04-08T01:55:03;100426.3;;;1.0;100.0
64025;BME280;50266;57.446;26.936;2023-04-08T01:56:05;100425.5;;;1.05;100.0
64025;BME280;50266;57.446;26.936;2023-04-08T01:57:04;100425.98;;;1.15;100.0
64025;BME280;50266;57.446;26.936;2023-04-08T01:58:04;100423.57;;;1.16;100.0
64025;BME280;50266;57.446;26.936;2023-04-08T01:59:04;100424.3;;;1.04;100.0
64025;BME280;50266;57.446;26.936;2023-04-08T02:00:07;100424.66;;;1.0;100.0
64025;BME280;50266;57.446;26.936;2023-04-08T02:01:09;100428.41;;;0.87;100.0
64025;BME280;50266;57.446;26.936;2023-04-08T02:02:07;100427.16;;;0.91;100.0
64025;BME280;50266;57.446;26.936;2023-04-08T02:03:06;100427.11;;;0.92;100.0
64025;BME280;50266;57.446;26.936;2023-04-08T02:04:06;100427.53;;;0.83;100.0
64025;BME280;50266;57.446;26.936;2023-04-08T02:05:06;100426.77;;;0.92;100.0
64025;BME280;50266;57.446;26.936;2023-04-08T02:06:06;100427.24;;;0.94;100.0
64025;BME280;50266;57.446;26.936;2023-04-08T02:07:06;100427.91;;;0.82;100.0
64025;BME280;50266;57.446;26.936;2023-04-08T02:08:06;100426.99;;;1.01;100.0
64025;BME280;50266;57.446;26.936;2023-04-08T02:09:06;100427.33;;;1.12;100.0
64025;BME280;50266;57.446;26.936;2023-04-08T02:10:06;100422.66;;;1.1;100.0
64025;BME280;50266;57.446;26.936;2023-04-08T02:11:06;100427.31;;;1.04;100.0
64025;BME280;50266;57.446;26.936;2023-04-08T02:12:06;100424.46;;;1.05;100.0
64025;BME280;50266;57.446;26.936;2023-04-08T02:13:06;100427.05;;;0.97;100.0
64025;BME280;50266;57.446;26.936;2023-04-08T02:14:06;100427.55;;;0.87;100.0
64025;BME280;50266;57.446;26.936;2023-04-08T02:15:07;100424.44;;;0.87;100.0
64025;BME280;50266;57.446;26.936;2023-04-08T02:16:13;100426.12;;;0.75;100.0
64025;BME280;50266;57.446;26.936;2023-04-08T02:17:11;100428.98;;;0.73;100.0
64025;BME280;50266;57.446;26.936;2023-04-08T02:18:15;100429.42;;;0.77;100.0
64025;BME280;50266;57.446;26.936;2023-04-08T02:19:14;100429.97;;;0.78;100.0
64025;BME280;50266;57.446;26.936;2023-04-08T02:20:15;100427.5;;;0.74;100.0
64025;BME280;50266;57.446;26.936;2023-04-08T02:21:13;100427.89;;;0.68;100.0
64025;BME280;50266;57.446;26.936;2023-04-08T02:22:16;100424.89;;;0.6;100.0
64025;BME280;50266;57.446;26.936;2023-04-08T02:23:15;100431.23;;;0.58;100.0
64025;BME280;50266;57.446;26.936;2023-04-08T02:24:14;100429.2;;;0.54;100.0
64025;BME280;50266;57.446;26.936;2023-04-08T02:25:15;100431.94;;;0.48;100.0
64025;BME280;50266;57.446;26.936;2023-04-08T02:26:14;100427.65;;;0.46;100.0
64025;BME280;50266;57.446;26.936;2023-04-08T02:27:14;100430.39;;;0.36;100.0
64025;BME280;50266;57.446;26.936;2023-04-08T02:28:14;100425.69;;;0.26;100.0
64025;BME280;50266;57.446;26.936;2023-04-08T02:29:14;100426.53;;;0.21;100.0
64025;BME280;50266;57.446;26.936;2023-04-08T02:30:14;100427.45;;;0.14;100.0
64025;BME280;50266;57.446;26.936;2023-04-08T02:31:15;100426.88;;;0.21;100.0
64025;BME280;50266;57.446;26.936;2023-04-08T02:32:15;100430.36;;;0.18;100.0
64025;BME280;50266;57.446;26.936;2023-04-08T02:33:16;100426.97;;;0.2;100.0
64025;BME280;50266;57.446;26.936;2023-04-08T02:34:15;100425.84;;;0.21;100.0
64025;BME280;50266;57.446;26.936;2023-04-08T02:35:15;100430.2;;;0.18;100.0
64025;BME280;50266;57.446;26.936;2023-04-08T02:36:15;100424.37;;;0.21;100.0
64025;BME280;50266;57.446;26.936;2023-04-08T02:37:15;100428.55;;;0.22;100.0
64025;BME280;50266;57.446;26.936;2023-04-08T02:38:15;100426.16;;;0.21;100.0
64025;BME280;50266;57.446;26.936;2023-04-08T02:39:15;100427.26;;;0.18;100.0
64025;BME280;50266;57.446;26.936;2023-04-08T02:40:25;100429.5;;;0.18;100.0
64025;BME280;50266;57.446;26.936;2023-04-08T02:41:16;100433.05;;;0.1;100.0
64025;BME280;50266;57.446;26.936;2023-04-08T02:42:16;100430.8;;;0.0;100.0
64025;BME280;50266;57.446;26.936;2023-04-08T02:43:16;100435.17;;;-0.03;100.0
64025;BME280;50266;57.446;26.936;2023-04-08T02:44:16;100427.25;;;-0.06;100.0
64025;BME280;50266;57.446;26.936;2023-04-08T02:45:17;100432.16;;;-0.14;100.0
64025;BME280;50266;57.446;26.936;2023-04-08T02:46:16;100432.42;;;-0.13;100.0
64025;BME280;50266;57.446;26.936;2023-04-08T02:47:16;100429.81;;;-0.06;100.0
64025;BME280;50266;57.446;26.936;2023-04-08T02:48:17;100428.92;;;-0.04;100.0
64025;BME280;50266;57.446;26.936;2023-04-08T02:49:17;100434.02;;;-0.15;100.0
64025;BME280;50266;57.446;26.936;2023-04-08T02:50:17;100434.79;;;-0.2;100.0
64025;BME280;50266;57.446;26.936;2023-04-08T02:51:17;100431.48;;;-0.22;100.0
64025;BME280;50266;57.446;26.936;2023-04-08T02:52:17;100436.81;;;-0.19;100.0
64025;BME280;50266;57.446;26.936;2023-04-08T02:53:17;100428.08;;;-0.26;100.0
64025;BME280;50266;57.446;26.936;2023-04-08T02:54:17;100433.69;;;-0.27;100.0
64025;BME280;50266;57.446;26.936;2023-04-08T02:55:17;100431.06;;;-0.24;100.0
64025;BME280;50266;57.446;26.936;2023-04-08T02:56:17;100431.81;;;-0.11;100.0
64025;BME280;50266;57.446;26.936;2023-04-08T02:57:17;100433.7;;;-0.1;100.0
64025;BME280;50266;57.446;26.936;2023-04-08T02:58:17;100433.86;;;-0.09;100.0
64025;BME280;50266;57.446;26.936;2023-04-08T02:59:17;100430.12;;;-0.03;100.0
64025;BME280;50266;57.446;26.936;2023-04-08T03:00:17;100430.3;;;-0.07;100.0
64025;BME280;50266;57.446;26.936;2023-04-08T03:01:17;100428.52;;;-0.08;100.0
64025;BME280;50266;57.446;26.936;2023-04-08T03:02:17;100432.39;;;-0.08;100.0
64025;BME280;50266;57.446;26.936;2023-04-08T03:03:17;100431.87;;;-0.12;100.0
64025;BME280;50266;57.446;26.936;2023-04-08T03:04:17;100433.44;;;-0.11;100.0
64025;BME280;50266;57.446;26.936;2023-04-08T03:05:17;100430.88;;;-0.09;100.0
64025;BME280;50266;57.446;26.936;2023-04-08T03:06:17;100434.42;;;-0.03;100.0
64025;BME280;50266;57.446;26.936;2023-04-08T03:07:17;100429.5;;;-0.01;100.0
64025;BME280;50266;57.446;26.936;2023-04-08T03:08:17;100434.08;;;0.0;100.0
64025;BME280;50266;57.446;26.936;2023-04-08T03:09:17;100433.69;;;0.05;100.0
64025;BME280;50266;57.446;26.936;2023-04-08T03:10:17;100433.57;;;0.05;100.0
64025;BME280;50266;57.446;26.936;2023-04-08T03:11:17;100426.57;;;0.09;100.0
64025;BME280;50266;57.446;26.936;2023-04-08T03:12:17;100423.62;;;0.09;100.0
64025;BME280;50266;57.446;26.936;2023-04-08T03:13:17;100427.39;;;0.09;100.0
64025;BME280;50266;57.446;26.936;2023-04-08T03:14:17;100424.32;;;0.05;100.0
64025;BME280;50266;57.446;26.936;2023-04-08T03:15:17;100424.34;;;0.15;100.0
64025;BME280;50266;57.446;26.936;2023-04-08T03:16:17;100420.42;;;0.16;100.0
64025;BME280;50266;57.446;26.936;2023-04-08T03:17:17;100422.84;;;0.12;100.0
64025;BME280;50266;57.446;26.936;2023-04-08T03:18:17;100425.72;;;0.07;100.0
64025;BME280;50266;57.446;26.936;2023-04-08T03:19:17;100425.9;;;0.04;100.0
64025;BME280;50266;57.446;26.936;2023-04-08T03:20:17;100425.32;;;0.09;100.0
64025;BME280;50266;57.446;26.936;2023-04-08T03:21:17;100423.02;;;0.03;100.0
64025;BME280;50266;57.446;26.936;2023-04-08T03:22:17;100428.18;;;0.0;100.0
64025;BME280;50266;57.446;26.936;2023-04-08T03:23:17;100424.69;;;0.07;100.0
64025;BME280;50266;57.446;26.936;2023-04-08T03:24:17;100424.5;;;0.03;100.0
64025;BME280;50266;57.446;26.936;2023-04-08T03:25:17;100422.03;;;0.06;100.0
64025;BME280;50266;57.446;26.936;2023-04-08T03:26:17;100425.05;;;0.02;100.0
64025;BME280;50266;57.446;26.936;2023-04-08T03:27:17;100423.59;;;0.08;100.0
64025;BME280;50266;57.446;26.936;2023-04-08T03:28:17;100427.02;;;0.21;100.0
64025;BME280;50266;57.446;26.936;2023-04-08T03:29:17;100424.47;;;0.22;100.0
64025;BME280;50266;57.446;26.936;2023-04-08T03:30:17;100425.3;;;0.18;100.0
64025;BME280;50266;57.446;26.936;2023-04-08T03:31:17;100426.94;;;0.17;100.0
64025;BME280;50266;57.446;26.936;2023-04-08T03:32:17;100426.72;;;0.18;100.0
64025;BME280;50266;57.446;26.936;2023-04-08T03:33:17;100424.66;;;0.11;100.0
64025;BME280;50266;57.446;26.936;2023-04-08T03:34:17;100425.46;;;0.21;100.0
64025;BME280;50266;57.446;26.936;2023-04-08T03:35:17;100427.31;;;0.27;100.0
64025;BME280;50266;57.446;26.936;2023-04-08T03:36:17;100428.83;;;0.22;100.0
64025;BME280;50266;57.446;26.936;2023-04-08T03:37:17;100427.81;;;0.17;100.0
64025;BME280;50266;57.446;26.936;2023-04-08T03:38:17;100430.52;;;0.21;100.0
64025;BME280;50266;57.446;26.936;2023-04-08T03:39:17;100430.39;;;0.14;100.0
64025;BME280;50266;57.446;26.936;2023-04-08T03:40:18;100431.5;;;0.2;100.0
64025;BME280;50266;57.446;26.936;2023-04-08T03:41:17;100431.61;;;0.22;100.0
64025;BME280;50266;57.446;26.936;2023-04-08T03:42:17;100433.01;;;0.14;100.0
64025;BME280;50266;57.446;26.936;2023-04-08T03:43:17;100433.08;;;0.19;100.0
64025;BME280;50266;57.446;26.936;2023-04-08T03:44:17;100431.33;;;0.2;100.0
64025;BME280;50266;57.446;26.936;2023-04-08T03:45:17;100435.86;;;0.19;100.0
64025;BME280;50266;57.446;26.936;2023-04-08T03:46:17;100434.7;;;0.23;100.0
64025;BME280;50266;57.446;26.936;2023-04-08T03:47:17;100439.56;;;0.21;100.0
64025;BME280;50266;57.446;26.936;2023-04-08T03:48:18;100434.38;;;0.2;100.0
64025;BME280;50266;57.446;26.936;2023-04-08T03:49:18;100436.94;;;0.23;100.0
64025;BME280;50266;57.446;26.936;2023-04-08T03:50:18;100436.5;;;0.13;100.0
64025;BME280;50266;57.446;26.936;2023-04-08T03:51:18;100437.28;;;0.11;100.0
64025;BME280;50266;57.446;26.936;2023-04-08T03:52:18;100438.2;;;0.11;100.0
64025;BME280;50266;57.446;26.936;2023-04-08T03:53:18;100441.34;;;0.24;100.0
64025;BME280;50266;57.446;26.936;2023-04-08T03:54:18;100435.66;;;0.25;100.0
64025;BME280;50266;57.446;26.936;2023-04-08T03:55:18;100432.6;;;0.18;100.0
64025;BME280;50266;57.446;26.936;2023-04-08T03:56:18;100438.02;;;0.24;100.0
64025;BME280;50266;57.446;26.936;2023-04-08T03:57:18;100433.78;;;0.23;100.0
64025;BME280;50266;57.446;26.936;2023-04-08T03:58:18;100437.86;;;0.2;100.0
64025;BME280;50266;57.446;26.936;2023-04-08T03:59:18;100437.59;;;0.29;100.0
64025;BME280;50266;57.446;26.936;2023-04-08T04:00:18;100437.32;;;0.28;100.0
64025;BME280;50266;57.446;26.936;2023-04-08T04:01:18;100436.93;;;0.29;100.0
64025;BME280;50266;57.446;26.936;2023-04-08T04:02:18;100438.69;;;0.28;100.0
64025;BME280;50266;57.446;26.936;2023-04-08T04:03:18;100431.33;;;0.22;100.0
64025;BME280;50266;57.446;26.936;2023-04-08T04:04:18;100432.6;;;0.18;100.0
64025;BME280;50266;57.446;26.936;2023-04-08T04:05:18;100432.38;;;0.21;100.0
64025;BME280;50266;57.446;26.936;2023-04-08T04:06:18;100439.61;;;0.23;100.0
64025;BME280;50266;57.446;26.936;2023-04-08T04:07:18;100434.87;;;0.23;100.0
64025;BME280;50266;57.446;26.936;2023-04-08T04:08:18;100434.72;;;0.27;100.0
64025;BME280;50266;57.446;26.936;2023-04-08T04:09:18;100432.91;;;0.19;100.0
64025;BME280;50266;57.446;26.936;2023-04-08T04:10:18;100434.92;;;0.23;100.0
64025;BME280;50266;57.446;26.936;2023-04-08T04:11:18;100436.12;;;0.22;100.0
64025;BME280;50266;57.446;26.936;2023-04-08T04:12:18;100436.94;;;0.34;100.0
64025;BME280;50266;57.446;26.936;2023-04-08T04:13:18;100437.09;;;0.3;100.0
64025;BME280;50266;57.446;26.936;2023-04-08T04:14:18;100440.48;;;0.28;100.0
64025;BME280;50266;57.446;26.936;2023-04-08T04:15:18;100435.1;;;0.33;100.0
64025;BME280;50266;57.446;26.936;2023-04-08T04:16:18;100434.08;;;0.32;100.0
64025;BME280;50266;57.446;26.936;2023-04-08T04:17:18;100434.71;;;0.34;100.0
64025;BME280;50266;57.446;26.936;2023-04-08T04:18:18;100436.42;;;0.38;100.0
64025;BME280;50266;57.446;26.936;2023-04-08T04:19:18;100434.11;;;0.35;100.0
64025;BME280;50266;57.446;26.936;2023-04-08T04:20:18;100440.53;;;0.41;100.0
64025;BME280;50266;57.446;26.936;2023-04-08T04:21:18;100441.63;;;0.4;100.0
64025;BME280;50266;57.446;26.936;2023-04-08T04:22:18;100441.19;;;0.4;100.0
64025;BME280;50266;57.446;26.936;2023-04-08T04:23:18;100444.03;;;0.4;100.0
64025;BME280;50266;57.446;26.936;2023-04-08T04:24:18;100443.91;;;0.44;100.0
64025;BME280;50266;57.446;26.936;2023-04-08T04:25:18;100444.95;;;0.48;100.0
64025;BME280;50266;57.446;26.936;2023-04-08T04:26:18;100444.02;;;0.61;100.0
64025;BME280;50266;57.446;26.936;2023-04-08T04:27:18;100444.52;;;0.6;100.0
64025;BME280;50266;57.446;26.936;2023-04-08T04:28:18;100442.2;;;0.65;100.0
64025;BME280;50266;57.446;26.936;2023-04-08T04:29:18;100444.09;;;0.77;100.0
64025;BME280;50266;57.446;26.936;2023-04-08T04:30:18;100440.8;;;0.74;100.0
64025;BME280;50266;57.446;26.936;2023-04-08T04:31:19;100441.61;;;0.8;100.0
64025;BME280;50266;57.446;26.936;2023-04-08T04:32:18;100444.95;;;0.83;100.0
64025;BME280;50266;57.446;26.936;2023-04-08T04:33:18;100442.11;;;0.73;100.0
64025;BME280;50266;57.446;26.936;2023-04-08T04:34:18;100445.67;;;0.89;100.0
64025;BME280;50266;57.446;26.936;2023-04-08T04:35:18;100447.3;;;0.91;100.0
64025;BME280;50266;57.446;26.936;2023-04-08T04:36:18;100440.95;;;0.97;100.0
64025;BME280;50266;57.446;26.936;2023-04-08T04:37:18;100438.53;;;0.99;100.0
64025;BME280;50266;57.446;26.936;2023-04-08T04:38:18;100441.31;;;1.03;100.0
64025;BME280;50266;57.446;26.936;2023-04-08T04:39:18;100437.0;;;0.99;100.0
64025;BME280;50266;57.446;26.936;2023-04-08T04:40:18;100444.7;;;0.98;100.0
64025;BME280;50266;57.446;26.936;2023-04-08T04:41:18;100439.55;;;0.96;100.0
64025;BME280;50266;57.446;26.936;2023-04-08T04:42:18;100443.94;;;0.93;100.0
64025;BME280;50266;57.446;26.936;2023-04-08T04:43:18;100447.59;;;0.88;100.0
64025;BME280;50266;57.446;26.936;2023-04-08T04:44:18;100444.93;;;0.87;100.0
64025;BME280;50266;57.446;26.936;2023-04-08T04:45:18;100448.19;;;0.93;100.0
64025;BME280;50266;57.446;26.936;2023-04-08T04:46:18;100441.52;;;0.99;100.0
64025;BME280;50266;57.446;26.936;2023-04-08T04:47:18;100444.41;;;1.0;100.0
64025;BME280;50266;57.446;26.936;2023-04-08T04:48:19;100447.19;;;1.0;100.0
64025;BME280;50266;57.446;26.936;2023-04-08T04:49:18;100444.78;;;1.16;100.0
64025;BME280;50266;57.446;26.936;2023-04-08T04:50:18;100442.22;;;1.16;100.0
64025;BME280;50266;57.446;26.936;2023-04-08T04:51:19;100446.38;;;1.2;100.0
64025;BME280;50266;57.446;26.936;2023-04-08T04:52:19;100441.87;;;1.22;100.0
64025;BME280;50266;57.446;26.936;2023-04-08T04:53:19;100446.98;;;1.24;100.0
64025;BME280;50266;57.446;26.936;2023-04-08T04:54:19;100444.41;;;1.24;100.0
64025;BME280;50266;57.446;26.936;2023-04-08T04:55:19;100446.0;;;1.26;100.0
64025;BME280;50266;57.446;26.936;2023-04-08T04:56:19;100447.59;;;1.22;100.0
64025;BME280;50266;57.446;26.936;2023-04-08T04:57:19;100450.91;;;1.3;100.0
64025;BME280;50266;57.446;26.936;2023-04-08T04:58:19;100447.11;;;1.33;100.0
64025;BME280;50266;57.446;26.936;2023-04-08T04:59:19;100448.31;;;1.36;100.0
64025;BME280;50266;57.446;26.936;2023-04-08T05:00:19;100451.58;;;1.33;100.0
64025;BME280;50266;57.446;26.936;2023-04-08T05:01:19;100451.06;;;1.35;100.0
64025;BME280;50266;57.446;26.936;2023-04-08T05:02:19;100451.27;;;1.36;100.0
64025;BME280;50266;57.446;26.936;2023-04-08T05:03:19;100449.57;;;1.36;100.0
64025;BME280;50266;57.446;26.936;2023-04-08T05:04:19;100454.98;;;1.36;100.0
64025;BME280;50266;57.446;26.936;2023-04-08T05:05:19;100455.97;;;1.46;100.0
64025;BME280;50266;57.446;26.936;2023-04-08T05:06:19;100451.45;;;1.52;100.0
64025;BME280;50266;57.446;26.936;2023-04-08T05:07:19;100455.75;;;1.57;100.0
64025;BME280;50266;57.446;26.936;2023-04-08T05:08:19;100453.59;;;1.6;100.0
64025;BME280;50266;57.446;26.936;2023-04-08T05:09:19;100455.0;;;1.65;100.0
64025;BME280;50266;57.446;26.936;2023-04-08T05:10:19;100455.92;;;1.66;100.0
64025;BME280;50266;57.446;26.936;2023-04-08T05:11:19;100453.11;;;1.63;100.0
64025;BME280;50266;57.446;26.936;2023-04-08T05:12:19;100454.86;;;1.63;100.0
64025;BME280;50266;57.446;26.936;2023-04-08T05:13:19;100454.21;;;1.63;100.0
64025;BME280;50266;57.446;26.936;2023-04-08T05:14:19;100456.05;;;1.64;100.0
64025;BME280;50266;57.446;26.936;2023-04-08T05:15:19;100460.34;;;1.61;100.0
64025;BME280;50266;57.446;26.936;2023-04-08T05:16:19;100459.33;;;1.63;100.0
64025;BME280;50266;57.446;26.936;2023-04-08T05:17:19;100457.62;;;1.64;100.0
64025;BME280;50266;57.446;26.936;2023-04-08T05:18:19;100458.45;;;1.64;100.0
64025;BME280;50266;57.446;26.936;2023-04-08T05:19:19;100460.08;;;1.7;100.0